createdAt,value
2022-10-24T00:01:23.161Z,14.30
2022-10-24T00:03:51.706Z,14.43
2022-10-24T00:06:20.643Z,14.29
2022-10-24T00:08:48.400Z,14.25
2022-10-24T00:11:18.031Z,14.32
2022-10-24T00:13:45.610Z,14.31
2022-10-24T00:16:13.976Z,14.34
2022-10-24T00:18:44.252Z,14.52
2022-10-24T00:21:12.328Z,14.50
2022-10-24T00:23:40.246Z,14.57
2022-10-24T00:26:08.092Z,14.43
2022-10-24T00:28:36.695Z,14.42
2022-10-24T00:31:05.911Z,14.34
2022-10-24T00:33:33.569Z,14.54
2022-10-24T00:36:03.170Z,14.60
2022-10-24T00:38:31.076Z,14.45
2022-10-24T00:40:58.848Z,14.18
2022-10-24T00:43:27.781Z,14.08
2022-10-24T00:45:57.368Z,14.05
2022-10-24T00:48:28.446Z,14.17
2022-10-24T00:50:59.405Z,14.26
2022-10-24T00:53:30.069Z,14.02
2022-10-24T00:56:00.214Z,13.87
2022-10-24T00:58:31.180Z,14.10
2022-10-24T01:00:59.558Z,14.24
2022-10-24T01:03:27.542Z,14.29
2022-10-24T01:06:13.201Z,14.26
2022-10-24T01:08:46.822Z,13.97
2022-10-24T01:11:30.352Z,13.84
2022-10-24T01:14:06.238Z,13.86
2022-10-24T01:16:41.393Z,13.78
2022-10-24T01:19:29.640Z,13.43
2022-10-24T01:22:02.309Z,13.40
2022-10-24T01:24:48.710Z,13.65
2022-10-24T01:27:48.234Z,13.91
2022-10-24T01:30:18.743Z,14.02
2022-10-24T01:32:55.984Z,14.03
2022-10-24T01:35:28.972Z,14.17
2022-10-24T01:38:03.823Z,14.26
2022-10-24T01:40:35.848Z,14.08
2022-10-24T01:43:10.058Z,14.08
2022-10-24T01:45:42.456Z,13.92
2022-10-24T01:48:15.307Z,14.02
2022-10-24T01:50:45.228Z,13.98
2022-10-24T01:53:14.644Z,14.00
2022-10-24T01:55:45.757Z,14.04
2022-10-24T01:58:14.971Z,13.98
2022-10-24T02:01:01.510Z,13.90
2022-10-24T02:03:36.910Z,14.04
2022-10-24T02:06:09.027Z,14.09
2022-10-24T02:08:41.883Z,14.09
2022-10-24T02:11:10.541Z,14.12
2022-10-24T02:13:47.522Z,14.09
2022-10-24T02:16:19.402Z,14.09
2022-10-24T02:18:47.468Z,13.91
2022-10-24T02:21:22.349Z,13.52
2022-10-24T02:23:54.685Z,13.63
2022-10-24T02:26:31.281Z,13.71
2022-10-24T02:29:02.776Z,13.94
2022-10-24T02:31:36.360Z,14.09
2022-10-24T02:34:06.215Z,14.13
2022-10-24T02:36:35.869Z,14.11
2022-10-24T02:39:07.176Z,13.92
2022-10-24T02:41:37.411Z,13.91
2022-10-24T02:44:07.276Z,14.00
2022-10-24T02:46:36.467Z,13.88
2022-10-24T02:49:06.012Z,14.01
2022-10-24T02:51:36.481Z,14.15
2022-10-24T02:54:05.778Z,14.26
2022-10-24T02:56:34.355Z,14.29
2022-10-24T02:59:01.904Z,14.24
2022-10-24T03:01:29.294Z,14.28
2022-10-24T03:03:58.487Z,14.19
2022-10-24T03:06:25.820Z,14.20
2022-10-24T03:08:53.466Z,14.23
2022-10-24T03:11:20.604Z,13.91
2022-10-24T03:13:48.238Z,13.90
2022-10-24T03:16:15.537Z,13.75
2022-10-24T03:18:43.188Z,13.85
2022-10-24T03:21:14.609Z,13.90
2022-10-24T03:23:42.490Z,14.05
2022-10-24T03:26:09.851Z,14.10
2022-10-24T03:28:37.428Z,14.29
2022-10-24T03:31:05.534Z,14.36
2022-10-24T03:33:33.201Z,14.41
2022-10-24T03:36:00.554Z,14.32
2022-10-24T03:38:29.485Z,14.36
2022-10-24T03:40:56.816Z,14.34
2022-10-24T03:43:24.444Z,14.44
2022-10-24T03:45:51.794Z,14.54
2022-10-24T03:48:19.357Z,14.67
2022-10-24T03:50:46.631Z,14.81
2022-10-24T03:53:14.252Z,14.88
2022-10-24T03:55:43.304Z,15.01
2022-10-24T03:58:10.836Z,15.16
2022-10-24T04:00:38.170Z,15.21
2022-10-24T04:03:06.415Z,15.13
2022-10-24T04:05:34.343Z,15.23
2022-10-24T04:08:02.392Z,15.35
2022-10-24T04:10:29.856Z,15.44
2022-10-24T04:12:59.226Z,15.55
2022-10-24T04:15:26.653Z,15.52
2022-10-24T04:17:54.661Z,15.59
2022-10-24T04:20:21.914Z,15.57
2022-10-24T04:22:49.900Z,15.55
2022-10-24T04:25:17.831Z,15.56
2022-10-24T04:27:45.427Z,15.52
2022-10-24T04:30:16.518Z,15.59
2022-10-24T04:32:44.901Z,15.65
2022-10-24T04:35:12.617Z,15.60
2022-10-24T04:37:40.285Z,15.68
2022-10-24T04:40:08.495Z,15.69
2022-10-24T04:42:35.987Z,15.84
2022-10-24T04:45:03.858Z,15.73
2022-10-24T04:47:33.357Z,15.78
2022-10-24T04:50:00.632Z,15.91
2022-10-24T04:52:28.403Z,16.00
2022-10-24T04:54:56.279Z,16.03
2022-10-24T04:57:23.874Z,16.09
2022-10-24T04:59:51.144Z,16.07
2022-10-24T05:02:18.735Z,16.07
2022-10-24T05:04:47.623Z,16.15
2022-10-24T05:07:15.209Z,16.15
2022-10-24T05:09:42.561Z,16.34
2022-10-24T05:12:10.269Z,16.32
2022-10-24T05:14:37.799Z,16.42
2022-10-24T05:17:05.446Z,16.23
2022-10-24T05:19:32.764Z,16.21
2022-10-24T05:22:02.568Z,16.12
2022-10-24T05:24:31.319Z,15.93
2022-10-24T05:26:58.987Z,16.00
2022-10-24T05:29:26.785Z,15.88
2022-10-24T05:31:54.362Z,15.93
2022-10-24T05:34:21.730Z,15.88
2022-10-24T05:36:49.398Z,15.88
2022-10-24T05:39:18.089Z,15.92
2022-10-24T05:41:47.156Z,15.98
2022-10-24T05:44:15.385Z,16.02
2022-10-24T05:46:42.930Z,16.00
2022-10-24T05:49:12.857Z,16.15
2022-10-24T05:51:40.424Z,16.03
2022-10-24T05:54:07.791Z,16.03
2022-10-24T05:56:37.117Z,16.12
2022-10-24T05:59:04.476Z,15.99
2022-10-24T06:01:32.386Z,15.90
2022-10-24T06:03:59.685Z,15.87
2022-10-24T06:06:27.467Z,15.73
2022-10-24T06:08:55.095Z,15.78
2022-10-24T06:13:51.551Z,15.83
2022-10-24T06:16:19.300Z,15.86
2022-10-24T06:18:46.642Z,15.90
2022-10-24T06:21:14.353Z,16.12
2022-10-24T06:23:41.717Z,16.09
2022-10-24T06:26:10.101Z,15.98
2022-10-24T06:28:38.401Z,16.14
2022-10-24T06:31:07.576Z,16.34
2022-10-24T06:33:35.407Z,16.17
2022-10-24T06:36:05.219Z,16.10
2022-10-24T06:38:33.271Z,16.28
2022-10-24T06:41:06.284Z,16.24
2022-10-24T06:43:33.586Z,16.13
2022-10-24T06:46:07.377Z,16.23
2022-10-24T06:48:34.998Z,16.36
2022-10-24T06:51:03.031Z,16.24
2022-10-24T06:53:31.122Z,16.34
2022-10-24T06:56:02.270Z,16.54
2022-10-24T06:58:31.999Z,16.43
2022-10-24T07:01:00.679Z,16.42
2022-10-24T07:03:29.390Z,16.29
2022-10-24T07:05:56.980Z,16.28
2022-10-24T07:08:27.609Z,16.34
2022-10-24T07:10:55.157Z,16.47
2022-10-24T07:13:22.422Z,16.48
2022-10-24T07:15:49.979Z,16.49
2022-10-24T07:18:17.343Z,16.34
2022-10-24T07:20:46.585Z,16.54
2022-10-24T07:23:14.103Z,16.42
2022-10-24T07:25:44.148Z,16.54
2022-10-24T07:28:13.509Z,16.72
2022-10-24T07:30:44.034Z,16.74
2022-10-24T07:33:11.291Z,16.59
2022-10-24T07:35:41.729Z,16.69
2022-10-24T07:38:10.619Z,16.77
2022-10-24T07:40:38.142Z,16.73
2022-10-24T07:43:05.449Z,16.71
2022-10-24T07:45:33.073Z,16.83
2022-10-24T07:48:00.686Z,16.97
2022-10-24T07:50:28.565Z,17.10
2022-10-24T07:52:55.978Z,16.98
2022-10-24T07:55:24.979Z,17.02
2022-10-24T07:57:52.270Z,17.28
2022-10-24T08:00:20.313Z,17.19
2022-10-24T08:05:22.856Z,17.32
2022-10-24T08:07:56.090Z,17.28
2022-10-24T08:10:39.554Z,17.45
2022-10-24T08:13:09.270Z,17.51
2022-10-24T08:15:40.298Z,17.53
2022-10-24T08:18:07.666Z,17.58
2022-10-24T08:20:35.314Z,17.60
2022-10-24T08:23:02.831Z,17.60
2022-10-24T08:25:30.382Z,17.75
2022-10-24T08:27:59.066Z,17.84
2022-10-24T08:30:26.757Z,17.91
2022-10-24T08:32:55.737Z,18.00
2022-10-24T08:35:23.346Z,18.17
2022-10-24T08:37:50.588Z,17.88
2022-10-24T08:40:19.709Z,17.98
2022-10-24T08:42:48.256Z,18.09
2022-10-24T08:45:26.959Z,18.16
2022-10-24T08:47:57.310Z,18.16
2022-10-24T08:50:27.056Z,18.13
2022-10-24T08:53:00.803Z,18.35
2022-10-24T08:55:49.684Z,18.32
2022-10-24T08:58:21.113Z,18.51
2022-10-24T09:00:53.178Z,18.60
2022-10-24T09:03:31.610Z,18.58
2022-10-24T09:06:16.512Z,18.98
2022-10-24T09:08:52.396Z,19.04
2022-10-24T09:11:25.106Z,19.33
2022-10-24T09:13:52.497Z,19.55
2022-10-24T09:16:24.238Z,19.82
2022-10-24T09:18:54.379Z,19.88
2022-10-24T09:21:23.316Z,20.09
2022-10-24T09:23:51.084Z,20.28
2022-10-24T09:26:26.511Z,20.50
2022-10-24T09:28:54.178Z,20.48
2022-10-24T09:31:26.122Z,20.55
2022-10-24T09:33:54.260Z,20.66
2022-10-24T09:36:23.032Z,20.95
2022-10-24T09:38:50.574Z,20.86
2022-10-24T09:41:22.211Z,20.90
2022-10-24T09:43:52.502Z,21.03
2022-10-24T09:46:22.159Z,21.41
2022-10-24T09:48:57.133Z,21.54
2022-10-24T09:51:28.729Z,21.92
2022-10-24T09:54:23.508Z,22.04
2022-10-24T09:56:57.116Z,22.17
2022-10-24T09:59:37.151Z,22.54
2022-10-24T10:02:17.336Z,22.38
2022-10-24T10:04:47.018Z,22.41
2022-10-24T10:07:18.238Z,22.28
2022-10-24T10:09:56.432Z,22.10
2022-10-24T10:12:31.807Z,22.07
2022-10-24T10:15:01.187Z,21.95
2022-10-24T10:17:29.322Z,21.47
2022-10-24T10:19:59.606Z,21.27
2022-10-24T10:22:30.031Z,21.31
2022-10-24T10:24:58.404Z,21.24
2022-10-24T10:27:29.801Z,21.24
2022-10-24T10:30:21.790Z,21.30
2022-10-24T10:33:02.318Z,21.06
2022-10-24T10:35:38.917Z,21.19
2022-10-24T10:38:25.372Z,21.48
2022-10-24T10:40:59.815Z,21.69
2022-10-24T10:43:37.946Z,21.78
2022-10-24T10:46:20.897Z,22.05
2022-10-24T10:49:03.161Z,22.42
2022-10-24T10:51:42.629Z,22.76
2022-10-24T10:54:32.568Z,22.79
2022-10-24T10:57:03.337Z,23.34
2022-10-24T10:59:49.702Z,23.34
2022-10-24T11:02:52.179Z,23.56
2022-10-24T11:05:33.357Z,23.34
2022-10-24T11:08:18.466Z,23.03
2022-10-24T11:10:51.630Z,23.03
2022-10-24T11:13:23.739Z,22.87
2022-10-24T11:15:57.352Z,22.90
2022-10-24T11:18:35.459Z,22.75
2022-10-24T11:21:07.251Z,22.88
2022-10-24T11:26:13.653Z,23.27
2022-10-24T11:28:47.939Z,23.55
2022-10-24T11:31:18.925Z,23.56
2022-10-24T11:33:49.966Z,23.44
2022-10-24T11:36:23.354Z,23.42
2022-10-24T11:38:58.966Z,23.32
2022-10-24T11:41:37.884Z,23.42
2022-10-24T11:44:15.610Z,23.09
2022-10-24T11:46:44.796Z,23.02
2022-10-24T11:49:20.371Z,23.10
2022-10-24T11:51:51.637Z,23.18
2022-10-24T11:54:25.334Z,22.97
2022-10-24T11:56:59.509Z,22.51
2022-10-24T11:59:27.276Z,22.31
2022-10-24T12:02:40.123Z,22.27
2022-10-24T12:05:22.642Z,22.25
2022-10-24T12:08:18.483Z,22.56
2022-10-24T12:11:15.384Z,22.69
2022-10-24T12:14:13.083Z,22.81
2022-10-24T12:16:53.375Z,22.99
2022-10-24T12:19:22.247Z,22.71
2022-10-24T12:21:54.381Z,22.69
2022-10-24T12:24:27.604Z,22.59
2022-10-24T12:26:59.913Z,22.51
2022-10-24T12:29:27.995Z,22.62
2022-10-24T12:31:55.368Z,22.49
2022-10-24T12:34:46.076Z,22.45
2022-10-24T12:37:35.467Z,22.31
2022-10-24T12:40:36.314Z,22.59
2022-10-24T12:43:15.831Z,22.48
2022-10-24T12:45:43.752Z,22.79
2022-10-24T12:48:35.597Z,22.60
2022-10-24T12:51:20.088Z,22.13
2022-10-24T12:54:18.263Z,22.19
2022-10-24T12:57:22.808Z,21.91
2022-10-24T12:59:53.983Z,21.80
2022-10-24T13:02:36.077Z,21.93
2022-10-24T13:05:16.962Z,21.83
2022-10-24T13:07:57.090Z,21.68
2022-10-24T13:10:44.025Z,21.51
2022-10-24T13:13:52.580Z,21.37
2022-10-24T13:16:35.464Z,21.45
2022-10-24T13:19:14.805Z,21.30
2022-10-24T13:21:47.960Z,21.24
2022-10-24T13:24:31.989Z,20.78
2022-10-24T13:27:37.510Z,20.57
2022-10-24T13:30:23.695Z,20.36
2022-10-24T13:33:31.115Z,20.38
2022-10-24T13:36:12.593Z,20.31
2022-10-24T13:38:42.514Z,20.14
2022-10-24T13:41:12.561Z,20.19
2022-10-24T13:43:46.922Z,20.59
2022-10-24T13:46:26.478Z,20.86
2022-10-24T13:48:56.840Z,20.72
2022-10-24T13:51:29.215Z,20.91
2022-10-24T13:54:02.132Z,20.91
2022-10-24T13:56:35.653Z,20.90
2022-10-24T13:59:03.083Z,20.60
2022-10-24T14:01:31.493Z,20.75
2022-10-24T14:04:02.291Z,20.35
2022-10-24T14:06:32.942Z,20.19
2022-10-24T14:09:07.206Z,20.38
2022-10-24T14:11:40.728Z,20.00
2022-10-24T14:14:25.514Z,19.78
2022-10-24T14:17:06.480Z,19.69
2022-10-24T14:19:37.366Z,19.84
2022-10-24T14:22:19.204Z,20.06
2022-10-24T14:24:47.500Z,19.95
2022-10-24T14:27:19.472Z,19.76
2022-10-24T14:30:01.527Z,19.54
2022-10-24T14:32:30.508Z,19.55
2022-10-24T14:37:38.840Z,19.69
2022-10-24T14:40:14.488Z,19.71
2022-10-24T14:42:43.639Z,19.70
2022-10-24T14:45:23.214Z,19.61
2022-10-24T14:47:53.093Z,19.48
2022-10-24T14:50:40.024Z,19.41
2022-10-24T14:53:23.406Z,19.43
2022-10-24T14:55:52.931Z,19.63
2022-10-24T14:58:23.098Z,19.75
2022-10-24T15:00:51.241Z,19.74
2022-10-24T15:03:19.041Z,19.53
2022-10-24T15:05:56.079Z,19.27
2022-10-24T15:08:34.599Z,19.26
2022-10-24T15:11:06.458Z,19.15
2022-10-24T15:13:48.147Z,19.20
2022-10-24T15:16:22.837Z,19.25
2022-10-24T15:18:54.426Z,19.21
2022-10-24T15:21:26.172Z,19.09
2022-10-24T15:23:56.028Z,18.91
2022-10-24T15:26:26.917Z,18.91
2022-10-24T15:29:04.160Z,19.01
2022-10-24T15:31:33.829Z,19.21
2022-10-24T15:34:01.582Z,19.13
2022-10-24T15:36:33.105Z,18.98
2022-10-24T15:39:03.561Z,19.02
2022-10-24T15:41:31.044Z,19.12
2022-10-24T15:43:59.051Z,19.09
2022-10-24T15:46:26.451Z,18.98
2022-10-24T15:48:54.561Z,18.90
2022-10-24T15:51:24.584Z,18.83
2022-10-24T15:53:53.878Z,18.55
2022-10-24T15:56:21.342Z,18.06
2022-10-24T15:58:50.952Z,17.78
2022-10-24T16:01:25.306Z,17.59
2022-10-24T16:03:53.607Z,17.43
2022-10-24T16:06:21.267Z,17.42
2022-10-24T16:08:49.393Z,17.38
2022-10-24T16:11:18.802Z,17.32
2022-10-24T16:13:47.092Z,17.31
2022-10-24T16:16:14.973Z,17.24
2022-10-24T16:18:42.656Z,17.15
2022-10-24T16:21:16.068Z,17.20
2022-10-24T16:23:44.432Z,17.33
2022-10-24T16:26:12.298Z,17.23
2022-10-24T16:28:41.711Z,17.11
2022-10-24T16:31:09.759Z,17.10
2022-10-24T16:33:37.343Z,17.14
2022-10-24T16:36:05.206Z,17.10
2022-10-24T16:38:33.114Z,17.07
2022-10-24T16:41:00.459Z,17.11
2022-10-24T16:43:28.539Z,17.25
2022-10-24T16:46:01.485Z,17.40
2022-10-24T16:48:29.885Z,17.71
2022-10-24T16:50:57.549Z,17.96
2022-10-24T16:53:25.328Z,18.17
2022-10-24T16:55:55.040Z,17.98
2022-10-24T16:58:23.061Z,17.98
2022-10-24T17:00:50.573Z,18.05
2022-10-24T17:03:19.814Z,18.18
2022-10-24T17:08:15.881Z,18.33
2022-10-24T17:10:43.122Z,18.47
2022-10-24T17:13:10.973Z,18.35
2022-10-24T17:15:39.246Z,18.36
2022-10-24T17:18:07.065Z,18.54
2022-10-24T17:20:35.942Z,18.57
2022-10-24T17:23:06.370Z,18.56
2022-10-24T17:25:34.408Z,18.23
2022-10-24T17:28:02.441Z,18.12
2022-10-24T17:30:30.489Z,17.99
2022-10-24T17:32:58.852Z,17.81
2022-10-24T17:35:28.447Z,17.63
2022-10-24T17:38:11.791Z,17.31
2022-10-24T17:40:42.436Z,17.15
2022-10-24T17:43:19.446Z,17.22
2022-10-24T17:45:47.364Z,17.39
2022-10-24T17:48:18.182Z,17.05
2022-10-24T17:50:45.758Z,16.92
2022-10-24T17:53:18.748Z,17.11
2022-10-24T17:55:47.503Z,17.21
2022-10-24T17:58:16.401Z,17.13
2022-10-24T18:00:44.448Z,17.36
2022-10-24T18:03:12.540Z,17.50
2022-10-24T18:05:39.932Z,17.67
2022-10-24T18:08:10.423Z,17.80
2022-10-24T18:10:40.680Z,17.64
2022-10-24T18:13:09.003Z,17.28
2022-10-24T18:15:37.119Z,17.20
2022-10-24T18:18:05.680Z,17.29
2022-10-24T18:20:33.359Z,17.40
2022-10-24T18:23:01.809Z,17.49
2022-10-24T18:25:29.367Z,17.43
2022-10-24T18:28:01.620Z,17.61
2022-10-24T18:30:28.656Z,17.51
2022-10-24T18:32:56.430Z,17.63
2022-10-24T18:35:24.014Z,17.65
2022-10-24T18:40:20.742Z,17.75
2022-10-24T18:42:52.315Z,17.78
2022-10-24T18:45:23.716Z,17.80
2022-10-24T18:47:53.291Z,17.70
2022-10-24T18:50:23.032Z,17.58
2022-10-24T18:52:55.935Z,17.54
2022-10-24T18:55:26.664Z,17.58
2022-10-24T18:57:54.704Z,17.65
2022-10-24T19:00:25.270Z,17.64
2022-10-24T19:03:00.348Z,17.79
2022-10-24T19:05:40.916Z,17.88
2022-10-24T19:08:13.352Z,17.90
2022-10-24T19:10:41.386Z,17.57
2022-10-24T19:13:09.271Z,17.26
2022-10-24T19:15:40.355Z,17.22
2022-10-24T19:18:11.760Z,16.94
2022-10-24T19:20:39.200Z,16.70
2022-10-24T19:23:07.251Z,16.58
2022-10-24T19:25:34.547Z,16.62
2022-10-24T19:28:02.223Z,16.88
2022-10-24T19:30:29.478Z,16.90
2022-10-24T19:32:58.557Z,16.78
2022-10-24T19:35:25.989Z,16.73
2022-10-24T19:37:53.637Z,16.63
2022-10-24T19:40:20.961Z,16.38
2022-10-24T19:42:48.739Z,16.32
2022-10-24T19:45:16.680Z,16.56
2022-10-24T19:47:45.591Z,16.70
2022-10-24T19:50:14.826Z,16.56
2022-10-24T19:52:42.529Z,16.64
2022-10-24T19:55:10.166Z,16.65
2022-10-24T19:57:37.802Z,16.55
2022-10-24T20:00:06.305Z,16.54
2022-10-24T20:02:34.146Z,16.66
2022-10-24T20:05:01.651Z,16.81
2022-10-24T20:07:32.106Z,16.85
2022-10-24T20:09:59.462Z,16.89
2022-10-24T20:12:27.378Z,16.71
2022-10-24T20:14:54.811Z,16.88
2022-10-24T20:17:22.511Z,17.02
2022-10-24T20:20:08.090Z,17.11
2022-10-24T20:22:37.394Z,17.16
2022-10-24T20:25:06.124Z,17.07
2022-10-24T20:27:33.763Z,17.10
2022-10-24T20:30:01.052Z,17.11
2022-10-24T20:32:28.847Z,16.79
2022-10-24T20:34:56.065Z,16.77
2022-10-24T20:37:23.681Z,16.75
2022-10-24T20:39:52.569Z,16.81
2022-10-24T20:42:20.397Z,16.72
2022-10-24T20:44:47.935Z,16.85
2022-10-24T20:47:15.814Z,16.94
2022-10-24T20:49:43.180Z,16.74
2022-10-24T20:54:38.215Z,16.83
2022-10-24T20:57:07.496Z,16.87
2022-10-24T20:59:35.215Z,16.79
2022-10-24T21:02:02.942Z,16.72
2022-10-24T21:04:30.384Z,16.89
2022-10-24T21:06:58.020Z,16.94
2022-10-24T21:09:25.576Z,16.61
2022-10-24T21:11:53.333Z,16.60
2022-10-24T21:14:22.181Z,16.52
2022-10-24T21:16:50.213Z,16.51
2022-10-24T21:19:17.818Z,16.64
2022-10-24T21:21:45.697Z,16.61
2022-10-24T21:24:15.536Z,16.70
2022-10-24T21:26:43.354Z,16.69
2022-10-24T21:32:00.072Z,16.91
2022-10-24T21:34:30.109Z,16.89
2022-10-24T21:37:01.170Z,16.89
2022-10-24T21:39:28.516Z,16.72
2022-10-24T21:41:56.376Z,16.78
2022-10-24T21:44:23.725Z,16.77
2022-10-24T21:46:51.413Z,16.86
2022-10-24T21:49:20.306Z,16.85
2022-10-24T21:51:49.333Z,16.86
2022-10-24T21:54:18.900Z,16.90
2022-10-24T21:56:46.634Z,16.85
2022-10-24T21:59:15.611Z,16.92
2022-10-24T22:01:45.882Z,16.95
2022-10-24T22:04:14.727Z,16.98
2022-10-24T22:06:45.003Z,16.76
2022-10-24T22:09:15.085Z,16.79
2022-10-24T22:11:43.609Z,16.81
2022-10-24T22:14:13.195Z,16.73
2022-10-24T22:16:41.929Z,16.75
2022-10-24T22:19:11.739Z,16.46
2022-10-24T22:21:41.497Z,16.14
2022-10-24T22:24:12.305Z,16.18
2022-10-24T22:26:40.938Z,16.18
2022-10-24T22:29:09.208Z,16.35
2022-10-24T22:31:37.742Z,16.34
2022-10-24T22:34:05.418Z,16.43
2022-10-24T22:36:44.291Z,16.42
2022-10-24T22:39:16.027Z,16.35
2022-10-24T22:41:44.938Z,16.26
2022-10-24T22:44:14.540Z,16.21
2022-10-24T22:47:07.876Z,16.11
2022-10-24T22:49:46.059Z,16.05
2022-10-24T22:52:14.098Z,16.09
2022-10-24T22:54:43.774Z,16.05
2022-10-24T22:57:11.986Z,15.93
2022-10-24T22:59:40.106Z,16.10
2022-10-24T23:02:19.645Z,16.08
2022-10-24T23:04:59.342Z,16.04
2022-10-24T23:07:34.998Z,16.06
2022-10-24T23:10:04.571Z,16.15
2022-10-24T23:12:32.664Z,16.12
2022-10-24T23:15:00.390Z,15.89
2022-10-24T23:17:30.081Z,15.83
2022-10-24T23:19:57.892Z,15.74
2022-10-24T23:22:27.265Z,15.78
2022-10-24T23:24:56.459Z,15.74
2022-10-24T23:27:32.521Z,15.69
2022-10-24T23:30:00.737Z,15.60
2022-10-24T23:32:30.771Z,15.73
2022-10-24T23:34:59.457Z,15.73
2022-10-24T23:37:31.535Z,15.62
2022-10-24T23:40:02.759Z,15.74
2022-10-24T23:42:32.494Z,15.65
2022-10-24T23:45:00.208Z,15.71
2022-10-24T23:47:51.221Z,15.68
2022-10-24T23:50:25.244Z,15.66
2022-10-24T23:53:04.489Z,15.65
2022-10-24T23:55:32.378Z,15.69
2022-10-24T23:58:02.357Z,15.81
